Time;durP1;ratioP1;P1;durP2;ratioP2;P2;SDS_P1;SDS_P2;PMS_P1;PMS_P2;Temp;Humidity;BMP_temperature;BMP_pressure;BME280_temperature;BME280_humidity;BME280_pressure;Samples;Min_cycle;Max_cycle;Signal;HPM_P1;HPM_P2
2022/12/19 00:00:21;;;;;;;35.23;21.87;;;;;;;;;;5302090;28;20016;-70
2022/12/19 00:02:52;;;;;;;34.73;23.27;;;;;;;;;;5302586;28;20065;-70
2022/12/19 00:05:23;;;;;;;38.13;23.40;;;;;;;;;;5302657;28;20043;-69
2022/12/19 00:07:54;;;;;;;33.37;21.53;;;;;;;;;;5301697;28;20016;-69
2022/12/19 00:10:25;;;;;;;36.53;21.97;;;;;;;;;;5302534;28;20020;-69
2022/12/19 00:12:57;;;;;;;36.00;22.53;;;;;;;;;;5302091;28;20577;-70
2022/12/19 00:15:28;;;;;;;38.33;22.97;;;;;;;;;;5302584;28;20036;-70
2022/12/19 00:17:59;;;;;;;34.90;21.90;;;;;;;;;;5302407;28;20024;-70
2022/12/19 00:20:30;;;;;;;37.30;23.14;;;;;;;;;;5301621;28;20104;-70
2022/12/19 00:23:01;;;;;;;36.20;23.00;;;;;;;;;;5303609;28;20020;-69
2022/12/19 00:25:32;;;;;;;37.23;21.13;;;;;;;;;;5306825;28;20479;-70
2022/12/19 00:28:04;;;;;;;36.80;22.77;;;;;;;;;;5305908;28;20023;-69
2022/12/19 00:30:35;;;;;;;38.23;23.03;;;;;;;;;;5306588;28;20043;-70
2022/12/19 00:33:06;;;;;;;35.13;22.53;;;;;;;;;;5306376;28;20047;-70
2022/12/19 00:35:37;;;;;;;36.30;22.23;;;;;;;;;;5305848;28;20027;-70
2022/12/19 00:38:08;;;;;;;38.63;21.90;;;;;;;;;;5306647;28;20375;-69
2022/12/19 00:40:39;;;;;;;35.97;22.43;;;;;;;;;;5305938;28;20157;-70
2022/12/19 00:43:11;;;;;;;38.27;22.57;;;;;;;;;;5305632;28;20499;-70
2022/12/19 00:45:42;;;;;;;36.20;22.53;;;;;;;;;;5305903;28;20024;-70
2022/12/19 00:48:13;;;;;;;36.30;22.20;;;;;;;;;;5305677;28;20047;-70
2022/12/19 00:50:44;;;;;;;38.20;22.38;;;;;;;;;;5305699;28;20027;-69
2022/12/19 00:53:15;;;;;;;38.27;22.83;;;;;;;;;;5306474;28;20521;-70
2022/12/19 00:55:46;;;;;;;34.27;21.57;;;;;;;;;;5304904;28;20043;-69
2022/12/19 00:58:18;;;;;;;38.63;23.07;;;;;;;;;;5306544;28;20013;-69
2022/12/19 01:00:49;;;;;;;35.73;21.70;;;;;;;;;;5305736;28;20053;-70
2022/12/19 01:03:20;;;;;;;31.63;21.63;;;;;;;;;;5305261;28;20038;-70
2022/12/19 01:05:51;;;;;;;35.27;22.47;;;;;;;;;;5305894;28;20035;-70
2022/12/19 01:08:23;;;;;;;35.10;21.63;;;;;;;;;;5305772;28;20012;-70
2022/12/19 01:10:54;;;;;;;34.63;20.63;;;;;;;;;;5305191;28;20035;-70
2022/12/19 01:13:26;;;;;;;33.53;20.42;;;;;;;;;;5305501;28;20069;-70
2022/12/19 01:16:01;;;;;;;35.27;21.30;;;;;;;;;;5305044;28;20408;-70
2022/12/19 01:18:32;;;;;;;33.90;21.67;;;;;;;;;;5305564;28;20471;-70
2022/12/19 01:21:05;;;;;;;33.65;21.95;;;;;;;;;;5305432;28;20081;-70
2022/12/19 01:23:36;;;;;;;34.13;21.02;;;;;;;;;;5304879;28;20091;-70
2022/12/19 01:26:08;;;;;;;35.55;21.73;;;;;;;;;;5305479;28;20095;-70
2022/12/19 01:28:39;;;;;;;36.10;21.27;;;;;;;;;;5305443;28;20581;-71
2022/12/19 01:31:10;;;;;;;36.40;22.00;;;;;;;;;;5304928;28;20077;-70
2022/12/19 01:33:41;;;;;;;32.90;20.60;;;;;;;;;;5304718;28;20055;-70
2022/12/19 01:36:12;;;;;;;32.86;20.90;;;;;;;;;;5304861;28;20032;-70
2022/12/19 01:38:43;;;;;;;34.03;20.97;;;;;;;;;;5304271;28;20103;-70
2022/12/19 01:41:15;;;;;;;29.75;19.90;;;;;;;;;;5305604;28;20020;-70
2022/12/19 01:43:53;;;;;;;33.90;21.40;;;;;;;;;;5304572;28;20067;-70
2022/12/19 01:46:44;;;;;;;31.17;20.67;;;;;;;;;;5304498;28;20020;-70
2022/12/19 01:49:23;;;;;;;30.38;19.05;;;;;;;;;;5305552;28;20028;-70
2022/12/19 01:51:55;;;;;;;;;;;;;;;;;;5304656;28;20153;-69
2022/12/19 01:54:29;;;;;;;33.53;19.57;;;;;;;;;;5304761;28;19911;-70
2022/12/19 01:57:02;;;;;;;34.53;21.30;;;;;;;;;;5304965;28;20333;-71
2022/12/19 01:59:37;;;;;;;32.27;20.33;;;;;;;;;;5304140;28;20024;-69
2022/12/19 02:02:10;;;;;;;34.88;21.83;;;;;;;;;;5304792;28;20039;-70
2022/12/19 02:04:42;;;;;;;34.15;21.17;;;;;;;;;;5304385;28;20755;-70
2022/12/19 02:07:15;;;;;;;34.07;20.77;;;;;;;;;;5304372;28;20031;-70
2022/12/19 02:09:48;;;;;;;34.13;20.65;;;;;;;;;;5304383;28;20370;-70
2022/12/19 02:12:19;;;;;;;31.60;18.93;;;;;;;;;;5303900;28;20052;-70
2022/12/19 02:14:51;;;;;;;32.43;21.70;;;;;;;;;;5304275;28;20063;-70
2022/12/19 02:17:31;;;;;;;28.90;19.25;;;;;;;;;;5304542;28;20044;-71
2022/12/19 02:20:14;;;;;;;35.85;21.63;;;;;;;;;;5303549;28;20031;-70
2022/12/19 02:22:46;;;;;;;31.23;21.83;;;;;;;;;;5303917;28;20032;-70
2022/12/19 02:25:20;;;;;;;32.12;20.24;;;;;;;;;;5304517;28;20083;-70
2022/12/19 02:28:04;;;;;;;36.67;21.27;;;;;;;;;;5303562;28;20118;-70
2022/12/19 02:30:47;;;;;;;31.70;20.17;;;;;;;;;;5304486;28;20401;-70
2022/12/19 02:33:25;;;;;;;32.00;19.13;;;;;;;;;;5304060;28;20020;-68
2022/12/19 02:36:02;;;;;;;31.90;19.80;;;;;;;;;;5304025;28;20061;-69
2022/12/19 02:38:40;;;;;;;29.37;19.60;;;;;;;;;;5304315;28;20055;-69
2022/12/19 02:41:14;;;;;;;29.60;19.17;;;;;;;;;;5303514;28;20027;-69
2022/12/19 02:43:47;;;;;;;32.28;19.35;;;;;;;;;;5303421;28;20036;-69
2022/12/19 02:46:19;;;;;;;30.25;19.02;;;;;;;;;;5304095;28;20020;-70
2022/12/19 02:48:50;;;;;;;28.33;18.33;;;;;;;;;;5302736;28;20031;-69
2022/12/19 02:51:21;;;;;;;28.92;18.88;;;;;;;;;;5303903;28;20407;-70
2022/12/19 02:53:52;;;;;;;28.45;18.15;;;;;;;;;;5303677;28;20024;-70
2022/12/19 02:56:33;;;;;;;29.02;18.35;;;;;;;;;;5302786;28;20114;-70
2022/12/19 02:59:14;;;;;;;29.27;18.30;;;;;;;;;;5303805;28;20391;-70
2022/12/19 03:01:52;;;;;;;29.63;19.02;;;;;;;;;;5302839;28;20310;-69
2022/12/19 03:04:31;;;;;;;30.20;18.52;;;;;;;;;;5303427;28;20076;-70
2022/12/19 03:07:09;;;;;;;27.65;18.00;;;;;;;;;;5303190;28;20506;-69
2022/12/19 03:09:51;;;;;;;27.90;17.38;;;;;;;;;;5302281;28;20031;-69
2022/12/19 03:12:25;;;;;;;26.75;17.98;;;;;;;;;;5303324;28;20016;-69
2022/12/19 03:14:57;;;;;;;26.92;17.30;;;;;;;;;;5303012;28;20028;-70
2022/12/19 03:17:33;;;;;;;27.50;16.27;;;;;;;;;;5302245;28;20107;-69
2022/12/19 03:20:07;;;;;;;29.10;16.98;;;;;;;;;;5303222;28;20472;-70
2022/12/19 03:22:38;;;;;;;25.95;16.88;;;;;;;;;;5302055;28;20023;-70
2022/12/19 03:25:09;;;;;;;26.83;16.20;;;;;;;;;;5303331;28;20020;-69
2022/12/19 03:27:41;;;;;;;24.50;15.98;;;;;;;;;;5302782;28;20008;-69
2022/12/19 03:30:12;;;;;;;26.50;17.45;;;;;;;;;;5302712;28;20463;-69
2022/12/19 03:32:45;;;;;;;21.05;14.60;;;;;;;;;;5302930;28;20035;-69
2022/12/19 03:35:19;;;;;;;22.80;15.68;;;;;;;;;;5303240;28;20096;-69
2022/12/19 03:37:51;;;;;;;21.40;13.30;;;;;;;;;;5302031;28;20464;-69
2022/12/19 03:40:24;;;;;;;22.55;15.10;;;;;;;;;;5302895;28;20391;-69
2022/12/19 03:43:09;;;;;;;24.52;14.35;;;;;;;;;;5303117;28;20020;-68
2022/12/19 03:45:40;;;;;;;18.65;13.13;;;;;;;;;;5302071;28;20063;-69
2022/12/19 03:48:14;;;;;;;21.05;14.32;;;;;;;;;;5303119;28;20054;-69
2022/12/19 03:50:52;;;;;;;20.27;12.75;;;;;;;;;;5301810;28;20020;-69
2022/12/19 03:53:26;;;;;;;18.98;12.80;;;;;;;;;;5302654;28;20061;-69
2022/12/19 03:56:03;;;;;;;18.75;13.02;;;;;;;;;;5302701;28;20131;-69
2022/12/19 03:58:37;;;;;;;17.77;11.65;;;;;;;;;;5301524;28;20097;-69
2022/12/19 04:01:08;;;;;;;19.75;12.60;;;;;;;;;;5302588;28;20027;-69
2022/12/19 04:03:39;;;;;;;16.95;11.52;;;;;;;;;;5302564;28;20024;-69
2022/12/19 04:06:11;;;;;;;17.55;11.35;;;;;;;;;;5302392;28;20015;-69
2022/12/19 04:08:43;;;;;;;18.52;12.32;;;;;;;;;;5302283;28;20031;-69
2022/12/19 04:11:17;;;;;;;17.88;12.20;;;;;;;;;;5302949;28;20020;-69
2022/12/19 04:13:51;;;;;;;17.73;11.35;;;;;;;;;;5301382;28;20391;-68
2022/12/19 04:16:30;;;;;;;15.45;11.48;;;;;;;;;;5302654;28;20028;-68
2022/12/19 04:19:09;;;;;;;15.20;10.30;;;;;;;;;;5301980;28;20467;-68
2022/12/19 04:21:44;;;;;;;15.02;11.15;;;;;;;;;;5302360;28;20031;-68
2022/12/19 04:24:22;;;;;;;15.98;10.77;;;;;;;;;;5302763;28;20059;-69
2022/12/19 04:26:55;;;;;;;14.57;10.20;;;;;;;;;;5301980;28;20027;-69
2022/12/19 04:29:29;;;;;;;17.02;10.50;;;;;;;;;;5302432;28;20046;-69
2022/12/19 04:32:01;;;;;;;14.48;10.18;;;;;;;;;;5302419;28;20020;-69
2022/12/19 04:34:32;;;;;;;13.18;9.50;;;;;;;;;;5301477;28;20024;-68
2022/12/19 04:37:03;;;;;;;13.00;9.95;;;;;;;;;;5302527;28;20482;-68
2022/12/19 04:39:34;;;;;;;14.52;9.90;;;;;;;;;;5302464;28;20034;-68
2022/12/19 04:42:06;;;;;;;12.07;9.60;;;;;;;;;;5301677;28;20051;-68
2022/12/19 04:44:37;;;;;;;13.27;9.02;;;;;;;;;;5302076;28;20083;-68
2022/12/19 04:47:08;;;;;;;13.63;9.57;;;;;;;;;;5301345;28;20041;-68
2022/12/19 04:49:39;;;;;;;10.95;8.57;;;;;;;;;;5301816;28;20031;-69
2022/12/19 04:52:10;;;;;;;13.13;9.43;;;;;;;;;;5302418;28;20052;-68
2022/12/19 04:54:41;;;;;;;12.82;9.45;;;;;;;;;;5301132;28;20414;-67
2022/12/19 04:57:13;;;;;;;12.07;8.57;;;;;;;;;;5302393;28;20028;-68
2022/12/19 04:59:44;;;;;;;12.77;9.00;;;;;;;;;;5301728;28;20030;-68
2022/12/19 05:02:15;;;;;;;11.10;8.63;;;;;;;;;;5301623;28;20519;-69
2022/12/19 05:04:46;;;;;;;12.00;9.25;;;;;;;;;;5301813;28;20324;-68
2022/12/19 05:07:17;;;;;;;12.95;9.43;;;;;;;;;;5302218;28;20040;-69
2022/12/19 05:09:48;;;;;;;12.60;9.15;;;;;;;;;;5301739;28;20484;-69
2022/12/19 05:12:20;;;;;;;10.98;8.80;;;;;;;;;;5306253;28;20091;-69
2022/12/19 05:14:51;;;;;;;12.65;9.10;;;;;;;;;;5305609;28;20028;-69
2022/12/19 05:17:22;;;;;;;13.32;9.02;;;;;;;;;;5304921;28;20093;-67
2022/12/19 05:19:53;;;;;;;10.50;8.05;;;;;;;;;;5305612;28;20028;-68
2022/12/19 05:22:24;;;;;;;13.23;7.32;;;;;;;;;;5304714;28;20012;-68
2022/12/19 05:24:56;;;;;;;11.25;8.60;;;;;;;;;;5305578;28;20024;-68
2022/12/19 05:27:27;;;;;;;10.70;8.68;;;;;;;;;;5305608;28;20020;-69
2022/12/19 05:29:58;;;;;;;13.00;9.50;;;;;;;;;;5304908;28;20034;-68
2022/12/19 05:32:30;;;;;;;11.43;8.38;;;;;;;;;;5305505;28;20091;-69
2022/12/19 05:35:02;;;;;;;11.35;8.10;;;;;;;;;;5305062;28;20078;-69
2022/12/19 05:37:33;;;;;;;9.55;7.30;;;;;;;;;;5304688;28;20056;-69
2022/12/19 05:40:04;;;;;;;11.05;8.23;;;;;;;;;;5305350;28;20035;-69
2022/12/19 05:42:35;;;;;;;10.20;7.60;;;;;;;;;;5305226;28;20062;-69
2022/12/19 05:45:07;;;;;;;11.95;8.38;;;;;;;;;;5304141;28;20063;-69
2022/12/19 05:47:38;;;;;;;9.43;7.70;;;;;;;;;;5305002;28;20368;-69
2022/12/19 05:50:09;;;;;;;9.93;7.68;;;;;;;;;;5305598;28;20093;-69
2022/12/19 05:52:41;;;;;;;9.20;7.30;;;;;;;;;;5303783;28;20099;-69
2022/12/19 05:55:12;;;;;;;9.70;7.63;;;;;;;;;;5305275;28;20016;-69
2022/12/19 05:57:43;;;;;;;8.20;6.55;;;;;;;;;;5303580;28;20034;-69
2022/12/19 06:00:15;;;;;;;8.50;7.32;;;;;;;;;;5305021;28;20463;-69
2022/12/19 06:02:46;;;;;;;10.13;7.35;;;;;;;;;;5304296;28;20362;-69
2022/12/19 06:05:18;;;;;;;10.60;7.38;;;;;;;;;;5304338;28;20409;-69
2022/12/19 06:07:49;;;;;;;8.60;6.70;;;;;;;;;;5304520;28;20027;-69
2022/12/19 06:10:20;;;;;;;12.05;7.35;;;;;;;;;;5304625;28;20078;-69
2022/12/19 06:12:51;;;;;;;8.05;6.38;;;;;;;;;;5303958;28;20097;-69
2022/12/19 06:15:22;;;;;;;8.60;7.18;;;;;;;;;;5304535;28;20089;-67
2022/12/19 06:17:53;;;;;;;8.57;6.50;;;;;;;;;;5304207;28;20016;-68
2022/12/19 06:20:25;;;;;;;8.48;6.75;;;;;;;;;;5303248;28;20028;-69
2022/12/19 06:22:56;;;;;;;8.35;6.85;;;;;;;;;;5304451;28;20024;-68
2022/12/19 06:25:27;;;;;;;9.00;6.40;;;;;;;;;;5303749;28;20031;-69
2022/12/19 06:27:58;;;;;;;8.70;7.07;;;;;;;;;;5304428;28;20027;-68
2022/12/19 06:30:30;;;;;;;8.63;6.68;;;;;;;;;;5304354;28;20012;-69
2022/12/19 06:33:01;;;;;;;7.18;6.07;;;;;;;;;;5303306;28;20018;-68
2022/12/19 06:35:32;;;;;;;8.93;6.60;;;;;;;;;;5303869;28;20418;-69
2022/12/19 06:38:03;;;;;;;8.05;6.05;;;;;;;;;;5303833;28;20478;-68
2022/12/19 06:43:28;;;;;;;7.38;6.63;;;;;;;;;;5303680;28;20480;-68
2022/12/19 06:45:59;;;;;;;7.57;6.40;;;;;;;;;;5303842;28;20024;-68
2022/12/19 06:48:30;;;;;;;8.13;6.80;;;;;;;;;;5303145;28;20031;-68
2022/12/19 06:51:01;;;;;;;8.93;6.40;;;;;;;;;;5303900;28;20016;-68
2022/12/19 06:53:33;;;;;;;6.85;5.60;;;;;;;;;;5303259;28;20020;-68
2022/12/19 06:56:04;;;;;;;8.35;6.72;;;;;;;;;;5303384;28;20036;-67
2022/12/19 06:58:35;;;;;;;7.88;6.28;;;;;;;;;;5303814;28;20012;-67
2022/12/19 07:01:07;;;;;;;7.05;6.35;;;;;;;;;;5302792;28;20032;-67
2022/12/19 07:03:40;;;;;;;9.00;6.88;;;;;;;;;;5303329;28;20039;-67
2022/12/19 07:06:11;;;;;;;8.13;5.75;;;;;;;;;;5303744;28;20017;-67
2022/12/19 07:08:42;;;;;;;8.18;5.65;;;;;;;;;;5302270;28;20021;-67
2022/12/19 07:11:13;;;;;;;7.53;6.55;;;;;;;;;;5303508;28;20056;-67
2022/12/19 07:13:44;;;;;;;9.73;6.65;;;;;;;;;;5303331;28;20424;-68
2022/12/19 07:16:16;;;;;;;8.95;7.13;;;;;;;;;;5302977;28;20040;-67
2022/12/19 07:18:48;;;;;;;8.07;6.40;;;;;;;;;;5303004;28;20051;-67
2022/12/19 07:21:19;;;;;;;6.80;5.28;;;;;;;;;;5303383;28;20016;-67
2022/12/19 07:23:50;;;;;;;7.50;6.25;;;;;;;;;;5302316;28;20519;-67
2022/12/19 07:26:22;;;;;;;6.03;5.43;;;;;;;;;;5303260;28;20024;-67
2022/12/19 07:28:53;;;;;;;6.80;5.65;;;;;;;;;;5302208;28;20059;-67
2022/12/19 07:31:24;;;;;;;7.15;5.75;;;;;;;;;;5302936;28;20054;-67
2022/12/19 07:33:56;;;;;;;9.05;5.75;;;;;;;;;;5302015;28;20375;-67
2022/12/19 07:36:27;;;;;;;5.72;5.10;;;;;;;;;;5302140;28;20036;-68
2022/12/19 07:38:59;;;;;;;7.15;5.45;;;;;;;;;;5302633;28;20024;-67
2022/12/19 07:41:30;;;;;;;6.72;5.22;;;;;;;;;;5302848;28;20581;-68
2022/12/19 07:44:01;;;;;;;6.47;5.32;;;;;;;;;;5301657;28;20112;-69
2022/12/19 07:46:32;;;;;;;8.35;5.20;;;;;;;;;;5302513;28;20028;-68
2022/12/19 07:49:03;;;;;;;5.72;4.70;;;;;;;;;;5302738;28;20024;-68
2022/12/19 07:51:35;;;;;;;6.97;4.85;;;;;;;;;;5300637;28;20024;-67
2022/12/19 07:54:06;;;;;;;6.00;4.85;;;;;;;;;;5302290;28;20456;-67
2022/12/19 07:56:37;;;;;;;5.57;4.60;;;;;;;;;;5302331;28;20030;-68
2022/12/19 07:59:08;;;;;;;4.95;4.43;;;;;;;;;;5301642;28;20448;-68
2022/12/19 08:01:39;;;;;;;5.18;4.45;;;;;;;;;;5302232;28;20558;-69
2022/12/19 08:04:11;;;;;;;5.93;4.20;;;;;;;;;;5302137;28;20012;-70
2022/12/19 08:06:42;;;;;;;5.75;4.60;;;;;;;;;;5302243;28;20074;-70
2022/12/19 08:09:13;;;;;;;6.13;4.80;;;;;;;;;;5302665;28;20096;-68
2022/12/19 08:11:44;;;;;;;5.38;4.13;;;;;;;;;;5296650;28;20034;-68
2022/12/19 08:14:15;;;;;;;6.25;4.32;;;;;;;;;;5301935;28;20020;-67
2022/12/19 08:16:47;;;;;;;6.10;4.03;;;;;;;;;;5300551;28;20032;-69
2022/12/19 08:19:18;;;;;;;8.07;4.25;;;;;;;;;;5299125;28;20008;-68
2022/12/19 08:21:49;;;;;;;6.63;4.63;;;;;;;;;;5299679;28;20125;-68
2022/12/19 08:24:20;;;;;;;5.90;4.38;;;;;;;;;;5300721;28;20027;-68
2022/12/19 08:26:51;;;;;;;6.70;4.70;;;;;;;;;;5300211;28;20361;-67
2022/12/19 08:29:23;;;;;;;7.35;3.70;;;;;;;;;;5301384;28;20031;-68
2022/12/19 08:31:54;;;;;;;6.13;4.10;;;;;;;;;;5301639;28;20044;-68
2022/12/19 08:34:26;;;;;;;6.10;4.22;;;;;;;;;;5301058;28;20024;-69
2022/12/19 08:36:57;;;;;;;5.20;3.90;;;;;;;;;;5301952;28;20043;-68
2022/12/19 08:39:29;;;;;;;5.55;3.95;;;;;;;;;;5301144;28;20081;-69
2022/12/19 08:42:00;;;;;;;5.45;3.28;;;;;;;;;;5301535;28;20039;-68
2022/12/19 08:44:31;;;;;;;4.65;3.53;;;;;;;;;;5303936;28;20133;-69
2022/12/19 08:47:02;;;;;;;4.00;3.50;;;;;;;;;;5305358;28;20050;-68
2022/12/19 08:49:33;;;;;;;5.35;3.50;;;;;;;;;;5305592;28;20023;-68
2022/12/19 08:52:06;;;;;;;5.43;2.83;;;;;;;;;;5305964;28;20506;-69
2022/12/19 08:54:37;;;;;;;5.03;3.40;;;;;;;;;;5304311;28;20479;-68
2022/12/19 08:57:08;;;;;;;4.45;2.90;;;;;;;;;;5305587;28;20024;-69
2022/12/19 08:59:40;;;;;;;4.60;3.30;;;;;;;;;;5305434;28;20024;-69
2022/12/19 09:02:11;;;;;;;6.32;3.80;;;;;;;;;;5305292;28;20107;-69
2022/12/19 09:04:42;;;;;;;5.03;3.17;;;;;;;;;;5305363;28;20382;-69
2022/12/19 09:07:13;;;;;;;4.55;3.85;;;;;;;;;;5305046;28;20020;-69
2022/12/19 09:09:44;;;;;;;3.05;2.72;;;;;;;;;;5304601;28;20026;-69
2022/12/19 09:12:16;;;;;;;4.05;2.95;;;;;;;;;;5305777;28;20101;-69
2022/12/19 09:14:47;;;;;;;4.60;2.95;;;;;;;;;;5304640;28;20016;-69
2022/12/19 09:17:18;;;;;;;3.28;2.70;;;;;;;;;;5305721;28;20049;-70
2022/12/19 09:19:49;;;;;;;5.28;3.28;;;;;;;;;;5304716;28;20023;-68
2022/12/19 09:22:21;;;;;;;4.22;3.02;;;;;;;;;;5304674;28;20032;-68
2022/12/19 09:24:53;;;;;;;4.63;3.08;;;;;;;;;;5305362;28;20077;-68
2022/12/19 09:27:24;;;;;;;3.42;3.10;;;;;;;;;;5305306;28;20019;-68
2022/12/19 09:29:55;;;;;;;4.82;2.75;;;;;;;;;;5304213;28;20024;-69
2022/12/19 09:32:26;;;;;;;5.57;3.15;;;;;;;;;;5305032;28;20024;-70
2022/12/19 09:34:57;;;;;;;3.83;2.63;;;;;;;;;;5305327;28;20399;-69
2022/12/19 09:37:28;;;;;;;3.70;2.75;;;;;;;;;;5304334;28;20038;-69
2022/12/19 09:40:00;;;;;;;5.30;2.85;;;;;;;;;;5304920;28;20032;-69
2022/12/19 09:42:37;;;;;;;3.83;2.58;;;;;;;;;;5304223;28;20107;-70
2022/12/19 09:45:23;;;;;;;5.10;2.80;;;;;;;;;;5304733;28;20487;-69
2022/12/19 09:47:56;;;;;;;4.50;3.28;;;;;;;;;;5304889;28;20107;-69
2022/12/19 09:50:30;;;;;;;4.95;3.05;;;;;;;;;;5304169;28;20024;-70
2022/12/19 09:53:05;;;;;;;4.38;3.25;;;;;;;;;;5304795;28;20036;-69
2022/12/19 09:55:39;;;;;;;5.90;3.05;;;;;;;;;;5303716;28;20422;-68
2022/12/19 09:58:17;;;;;;;4.82;3.25;;;;;;;;;;5304069;28;20103;-70
2022/12/19 10:00:52;;;;;;;4.45;2.75;;;;;;;;;;5304274;28;20032;-69
2022/12/19 10:03:38;;;;;;;3.75;2.78;;;;;;;;;;5303752;28;20024;-70
2022/12/19 10:06:17;;;;;;;4.43;2.72;;;;;;;;;;5304675;28;20375;-69
2022/12/19 10:08:49;;;;;;;5.50;2.95;;;;;;;;;;5303775;28;20039;-68
2022/12/19 10:11:39;;;;;;;3.53;2.53;;;;;;;;;;5303742;28;20043;-68
2022/12/19 10:14:29;;;;;;;3.03;2.58;;;;;;;;;;5304403;28;20062;-70
2022/12/19 10:17:05;;;;;;;2.92;1.67;;;;;;;;;;5304412;28;20053;-68
2022/12/19 10:19:54;;;;;;;2.60;2.25;;;;;;;;;;5303576;28;20012;-68
2022/12/19 10:22:28;;;;;;;4.47;2.35;;;;;;;;;;5304011;28;20032;-68
2022/12/19 10:25:02;;;;;;;4.53;2.30;;;;;;;;;;5303608;28;20046;-69
2022/12/19 10:27:46;;;;;;;3.10;2.33;;;;;;;;;;5304293;28;20111;-69
2022/12/19 10:30:22;;;;;;;4.88;2.22;;;;;;;;;;5304624;28;20020;-68
2022/12/19 10:33:11;;;;;;;4.32;2.30;;;;;;;;;;5302899;28;20360;-68
2022/12/19 10:35:44;;;;;;;3.47;2.10;;;;;;;;;;5303403;28;20119;-68
2022/12/19 10:38:30;;;;;;;4.18;2.13;;;;;;;;;;5303938;28;20020;-69
2022/12/19 10:41:14;;;;;;;2.58;1.70;;;;;;;;;;5302994;28;20045;-68
2022/12/19 10:43:55;;;;;;;3.63;2.17;;;;;;;;;;5303377;28;20556;-68
2022/12/19 10:46:41;;;;;;;4.53;2.08;;;;;;;;;;5303038;28;20066;-68
2022/12/19 10:49:16;;;;;;;3.08;2.00;;;;;;;;;;5304028;28;20023;-68
2022/12/19 10:51:57;;;;;;;2.50;1.60;;;;;;;;;;5303042;28;20024;-68
2022/12/19 10:54:42;;;;;;;3.70;1.90;;;;;;;;;;5302721;28;20023;-68
2022/12/19 10:57:17;;;;;;;2.65;1.23;;;;;;;;;;5303891;28;20036;-69
2022/12/19 10:59:59;;;;;;;3.65;1.88;;;;;;;;;;5302380;28;20027;-69
2022/12/19 11:02:33;;;;;;;2.70;1.67;;;;;;;;;;5303391;28;20078;-69
2022/12/19 11:05:18;;;;;;;5.78;2.03;;;;;;;;;;5303267;28;20032;-69
2022/12/19 11:07:58;;;;;;;3.50;1.70;;;;;;;;;;5302228;28;20031;-69
2022/12/19 11:10:48;;;;;;;3.80;1.92;;;;;;;;;;5303085;28;20032;-69
2022/12/19 11:13:49;;;;;;;3.38;1.90;;;;;;;;;;5303793;28;20376;-69
2022/12/19 11:16:22;;;;;;;4.53;1.80;;;;;;;;;;5290117;28;20043;-69
2022/12/19 11:18:53;;;;;;;3.22;1.98;;;;;;;;;;5303097;28;20583;-69
2022/12/19 11:21:27;;;;;;;3.78;1.75;;;;;;;;;;5302552;28;20020;-69
2022/12/19 11:23:58;;;;;;;2.42;1.63;;;;;;;;;;5303215;28;20471;-69
2022/12/19 11:26:49;;;;;;;3.38;1.88;;;;;;;;;;5303079;28;20031;-68
2022/12/19 11:29:25;;;;;;;3.72;2.15;;;;;;;;;;5298532;28;20016;-68
2022/12/19 11:31:58;;;;;;;2.83;1.58;;;;;;;;;;5302893;28;20024;-68
2022/12/19 11:34:31;;;;;;;2.85;1.60;;;;;;;;;;5302277;28;20028;-68
2022/12/19 11:37:11;;;;;;;4.28;2.10;;;;;;;;;;5301961;28;20372;-70
2022/12/19 11:40:01;;;;;;;6.10;1.65;;;;;;;;;;5302028;28;20028;-70
2022/12/19 11:42:51;;;;;;;4.15;1.90;;;;;;;;;;5298529;28;20468;-69
2022/12/19 11:45:34;;;;;;;2.47;2.05;;;;;;;;;;5285199;28;20056;-69
2022/12/19 11:48:28;;;;;;;3.85;1.20;;;;;;;;;;5281354;28;20025;-70
2022/12/19 11:51:21;;;;;;;3.13;2.08;;;;;;;;;;5280116;28;20128;-69
2022/12/19 11:54:01;;;;;;;5.20;2.88;;;;;;;;;;5280246;28;20402;-69
2022/12/19 11:56:32;;;;;;;2.13;1.58;;;;;;;;;;5280724;28;20040;-69
2022/12/19 11:59:17;;;;;;;2.85;1.58;;;;;;;;;;5281702;28;20112;-68
2022/12/19 12:02:07;;;;;;;4.72;2.13;;;;;;;;;;5281112;28;20016;-68
2022/12/19 12:04:41;;;;;;;3.15;1.80;;;;;;;;;;5280523;28;20480;-68
2022/12/19 12:07:12;;;;;;;2.42;1.50;;;;;;;;;;5281594;28;20480;-68
2022/12/19 12:09:46;;;;;;;4.03;1.58;;;;;;;;;;5280778;28;20023;-68
2022/12/19 12:12:21;;;;;;;1.77;1.23;;;;;;;;;;5280726;28;20394;-69
2022/12/19 12:14:59;;;;;;;2.97;1.45;;;;;;;;;;5281242;28;20035;-69
2022/12/19 12:17:50;;;;;;;4.15;1.55;;;;;;;;;;5280626;28;20024;-68
2022/12/19 12:20:34;;;;;;;3.20;1.48;;;;;;;;;;5277208;28;20039;-69
2022/12/19 12:23:11;;;;;;;3.85;1.40;;;;;;;;;;5285538;28;20499;-68
2022/12/19 12:25:54;;;;;;;4.35;1.10;;;;;;;;;;5284339;28;20057;-69
2022/12/19 12:28:50;;;;;;;2.30;1.02;;;;;;;;;;5285624;28;20021;-68
2022/12/19 12:31:42;;;;;;;2.10;1.33;;;;;;;;;;5284771;28;20058;-69
2022/12/19 12:34:13;;;;;;;2.40;1.27;;;;;;;;;;5285501;28;20096;-68
2022/12/19 12:36:45;;;;;;;2.85;1.23;;;;;;;;;;5284668;28;20444;-69
2022/12/19 12:39:26;;;;;;;2.50;1.00;;;;;;;;;;5284671;28;20316;-69
2022/12/19 12:42:03;;;;;;;3.20;1.13;;;;;;;;;;5285251;28;20328;-67
2022/12/19 12:44:36;;;;;;;1.77;1.00;;;;;;;;;;5284916;28;20091;-68
2022/12/19 12:47:19;;;;;;;3.38;0.98;;;;;;;;;;5284352;28;20036;-67
2022/12/19 12:49:53;;;;;;;3.58;0.90;;;;;;;;;;5284666;28;20085;-68
2022/12/19 12:52:30;;;;;;;3.05;1.35;;;;;;;;;;5284141;28;20020;-68
2022/12/19 12:55:03;;;;;;;2.42;0.80;;;;;;;;;;5284904;28;20032;-68
2022/12/19 12:57:36;;;;;;;2.03;1.00;;;;;;;;;;5284892;28;20515;-69
2022/12/19 13:00:19;;;;;;;2.40;0.90;;;;;;;;;;5284044;28;20032;-68
2022/12/19 13:02:53;;;;;;;2.38;0.90;;;;;;;;;;5284113;28;20024;-65
2022/12/19 13:05:33;;;;;;;3.38;1.00;;;;;;;;;;5284810;28;20027;-68
2022/12/19 13:08:23;;;;;;;2.67;1.00;;;;;;;;;;5283831;28;20383;-69
2022/12/19 13:10:56;;;;;;;2.58;1.33;;;;;;;;;;5284301;28;20036;-66
2022/12/19 13:13:47;;;;;;;2.33;0.80;;;;;;;;;;5283426;28;20464;-67
2022/12/19 13:16:44;;;;;;;1.33;0.77;;;;;;;;;;5284365;28;20079;-67
2022/12/19 13:19:20;;;;;;;1.85;0.70;;;;;;;;;;5282460;28;20052;-67
2022/12/19 13:22:03;;;;;;;3.30;0.90;;;;;;;;;;5283616;28;20345;-67
2022/12/19 13:24:51;;;;;;;2.20;0.77;;;;;;;;;;5284306;28;20028;-67
2022/12/19 13:27:22;;;;;;;1.67;0.80;;;;;;;;;;5283891;28;20017;-67
2022/12/19 13:29:59;;;;;;;2.13;0.90;;;;;;;;;;5282542;28;20027;-67
2022/12/19 13:32:32;;;;;;;2.55;0.80;;;;;;;;;;5283686;28;20017;-67
2022/12/19 13:35:05;;;;;;;2.58;0.90;;;;;;;;;;5283290;28;20051;-68
2022/12/19 13:37:36;;;;;;;3.00;0.82;;;;;;;;;;5283675;28;20040;-67
2022/12/19 13:40:12;;;;;;;2.22;0.75;;;;;;;;;;5284053;28;20445;-67
2022/12/19 13:45:55;;;;;;;1.98;0.80;;;;;;;;;;5281659;28;20040;-68
2022/12/19 13:48:28;;;;;;;2.35;0.70;;;;;;;;;;5283740;28;20048;-68
2022/12/19 13:51:04;;;;;;;1.83;0.70;;;;;;;;;;5283095;28;20028;-67
2022/12/19 13:53:36;;;;;;;3.08;0.80;;;;;;;;;;5283541;28;20028;-67
2022/12/19 13:56:07;;;;;;;2.78;0.90;;;;;;;;;;5282575;28;20052;-67
2022/12/19 13:58:42;;;;;;;2.40;0.73;;;;;;;;;;5283272;28;20504;-67
2022/12/19 14:01:15;;;;;;;3.78;0.90;;;;;;;;;;5283370;28;20271;-66
2022/12/19 14:03:47;;;;;;;1.52;0.60;;;;;;;;;;5282492;28;20013;-67
2022/12/19 14:06:24;;;;;;;2.80;0.73;;;;;;;;;;5283724;28;20036;-67
2022/12/19 14:09:03;;;;;;;2.72;1.05;;;;;;;;;;5283533;28;20016;-68
2022/12/19 14:11:38;;;;;;;2.53;0.68;;;;;;;;;;5282657;28;20476;-68
2022/12/19 14:17:14;;;;;;;2.50;0.98;;;;;;;;;;5302387;28;20123;-67
2022/12/19 14:19:46;;;;;;;2.83;0.70;;;;;;;;;;5303053;28;20027;-67
2022/12/19 14:22:17;;;;;;;2.42;0.80;;;;;;;;;;5303816;28;20373;-66
2022/12/19 14:24:56;;;;;;;2.08;0.80;;;;;;;;;;5302705;28;20029;-68
2022/12/19 14:27:27;;;;;;;2.63;0.77;;;;;;;;;;5303924;28;20591;-67
2022/12/19 14:29:59;;;;;;;2.05;0.70;;;;;;;;;;5303810;28;20080;-67
2022/12/19 14:32:30;;;;;;;2.15;0.93;;;;;;;;;;5302991;28;20254;-67
2022/12/19 14:35:05;;;;;;;2.63;0.60;;;;;;;;;;5303430;28;20038;-67
2022/12/19 14:37:39;;;;;;;1.50;0.70;;;;;;;;;;5303697;28;20606;-67
2022/12/19 14:40:23;;;;;;;3.75;0.80;;;;;;;;;;5303364;28;20128;-67
2022/12/19 14:45:48;;;;;;;2.58;0.60;;;;;;;;;;5302594;28;20044;-68
2022/12/19 14:48:33;;;;;;;2.47;0.70;;;;;;;;;;5303929;28;20099;-68
2022/12/19 14:51:07;;;;;;;1.88;0.98;;;;;;;;;;5303493;28;20246;-68
2022/12/19 14:53:39;;;;;;;2.50;0.70;;;;;;;;;;5302714;28;20020;-68
2022/12/19 14:56:13;;;;;;;1.52;0.70;;;;;;;;;;5303205;28;20168;-67
2022/12/19 14:58:53;;;;;;;1.52;0.60;;;;;;;;;;5303040;28;20016;-69
2022/12/19 15:01:24;;;;;;;2.00;0.70;;;;;;;;;;5303264;28;20442;-68
2022/12/19 15:04:03;;;;;;;1.95;0.70;;;;;;;;;;5302744;28;20032;-67
2022/12/19 15:06:40;;;;;;;3.42;0.88;;;;;;;;;;5302802;28;20034;-68
2022/12/19 15:09:13;;;;;;;2.17;0.70;;;;;;;;;;5303405;28;20016;-65
2022/12/19 15:14:47;;;;;;;1.75;0.63;;;;;;;;;;5302368;28;20024;-67
2022/12/19 15:17:22;;;;;;;1.75;0.70;;;;;;;;;;5303321;28;20383;-67
2022/12/19 15:19:53;;;;;;;3.15;0.88;;;;;;;;;;5302673;28;20051;-66
2022/12/19 15:22:24;;;;;;;1.67;0.70;;;;;;;;;;5302178;28;20483;-66
2022/12/19 15:24:55;;;;;;;1.85;0.60;;;;;;;;;;5303208;28;20379;-68
2022/12/19 15:27:27;;;;;;;2.47;0.90;;;;;;;;;;5302363;28;20051;-68
2022/12/19 15:29:58;;;;;;;3.28;1.20;;;;;;;;;;5302977;28;20024;-68